sensor_id;sensor_type;location;lat;lon;timestamp;P1;durP1;ratioP1;P2;durP2;ratioP2
75417;SDS011;63997;52.112;5.420;2023-02-08T00:01:30;12.48;;;6.97;;
75417;SDS011;63997;52.112;5.420;2023-02-08T00:03:57;8.60;;;5.37;;
75417;SDS011;63997;52.112;5.420;2023-02-08T00:06:23;14.63;;;6.43;;
75417;SDS011;63997;52.112;5.420;2023-02-08T00:08:50;12.05;;;6.57;;
75417;SDS011;63997;52.112;5.420;2023-02-08T00:11:16;16.25;;;6.82;;
75417;SDS011;63997;52.112;5.420;2023-02-08T00:13:42;11.38;;;6.60;;
75417;SDS011;63997;52.112;5.420;2023-02-08T00:16:11;9.07;;;5.97;;
75417;SDS011;63997;52.112;5.420;2023-02-08T00:18:56;12.07;;;6.20;;
75417;SDS011;63997;52.112;5.420;2023-02-08T00:21:22;11.45;;;5.95;;
75417;SDS011;63997;52.112;5.420;2023-02-08T00:23:49;11.20;;;6.50;;
75417;SDS011;63997;52.112;5.420;2023-02-08T00:26:15;9.50;;;5.72;;
75417;SDS011;63997;52.112;5.420;2023-02-08T00:28:42;16.33;;;6.07;;
75417;SDS011;63997;52.112;5.420;2023-02-08T00:31:08;14.60;;;6.28;;
75417;SDS011;63997;52.112;5.420;2023-02-08T00:33:34;10.10;;;5.90;;
75417;SDS011;63997;52.112;5.420;2023-02-08T00:36:01;13.95;;;6.57;;
75417;SDS011;63997;52.112;5.420;2023-02-08T00:38:29;12.48;;;5.63;;
75417;SDS011;63997;52.112;5.420;2023-02-08T00:40:56;19.10;;;6.07;;
75417;SDS011;63997;52.112;5.420;2023-02-08T00:43:22;11.55;;;6.85;;
75417;SDS011;63997;52.112;5.420;2023-02-08T00:45:53;11.50;;;5.75;;
75417;SDS011;63997;52.112;5.420;2023-02-08T00:48:23;13.95;;;6.93;;
75417;SDS011;63997;52.112;5.420;2023-02-08T00:51:00;10.55;;;5.40;;
75417;SDS011;63997;52.112;5.420;2023-02-08T00:53:50;9.30;;;5.53;;
75417;SDS011;63997;52.112;5.420;2023-02-08T00:56:16;9.70;;;5.55;;
75417;SDS011;63997;52.112;5.420;2023-02-08T00:58:43;9.27;;;5.38;;
75417;SDS011;63997;52.112;5.420;2023-02-08T01:01:09;10.23;;;5.57;;
75417;SDS011;63997;52.112;5.420;2023-02-08T01:03:37;10.88;;;5.47;;
75417;SDS011;63997;52.112;5.420;2023-02-08T01:08:49;12.77;;;6.03;;
75417;SDS011;63997;52.112;5.420;2023-02-08T01:11:17;9.50;;;5.60;;
75417;SDS011;63997;52.112;5.420;2023-02-08T01:16:31;13.40;;;6.35;;
75417;SDS011;63997;52.112;5.420;2023-02-08T01:25:06;10.82;;;6.47;;
75417;SDS011;63997;52.112;5.420;2023-02-08T01:27:33;14.20;;;7.30;;
75417;SDS011;63997;52.112;5.420;2023-02-08T01:30:03;12.30;;;7.15;;
75417;SDS011;63997;52.112;5.420;2023-02-08T01:32:30;10.57;;;6.37;;
75417;SDS011;63997;52.112;5.420;2023-02-08T01:34:57;12.43;;;6.78;;
75417;SDS011;63997;52.112;5.420;2023-02-08T01:37:23;12.20;;;6.13;;
75417;SDS011;63997;52.112;5.420;2023-02-08T01:39:49;12.25;;;6.20;;
75417;SDS011;63997;52.112;5.420;2023-02-08T01:42:16;9.15;;;5.65;;
75417;SDS011;63997;52.112;5.420;2023-02-08T01:47:46;8.50;;;5.68;;
75417;SDS011;63997;52.112;5.420;2023-02-08T01:50:35;11.27;;;5.68;;
75417;SDS011;63997;52.112;5.420;2023-02-08T01:56:11;9.52;;;5.22;;
75417;SDS011;63997;52.112;5.420;2023-02-08T01:58:45;11.97;;;6.10;;
75417;SDS011;63997;52.112;5.420;2023-02-08T02:01:17;16.33;;;6.53;;
75417;SDS011;63997;52.112;5.420;2023-02-08T02:03:43;12.85;;;6.28;;
75417;SDS011;63997;52.112;5.420;2023-02-08T02:09:21;11.20;;;5.38;;
75417;SDS011;63997;52.112;5.420;2023-02-08T02:11:53;14.13;;;6.33;;
75417;SDS011;63997;52.112;5.420;2023-02-08T02:14:21;12.05;;;6.30;;
75417;SDS011;63997;52.112;5.420;2023-02-08T02:16:48;18.67;;;7.07;;
75417;SDS011;63997;52.112;5.420;2023-02-08T02:19:29;17.65;;;7.43;;
75417;SDS011;63997;52.112;5.420;2023-02-08T02:25:01;15.60;;;7.50;;
75417;SDS011;63997;52.112;5.420;2023-02-08T02:33:10;15.90;;;8.20;;
75417;SDS011;63997;52.112;5.420;2023-02-08T02:36:09;16.30;;;7.72;;
75417;SDS011;63997;52.112;5.420;2023-02-08T02:56:18;11.60;;;6.60;;
75417;SDS011;63997;52.112;5.420;2023-02-08T03:02:12;12.23;;;6.53;;
75417;SDS011;63997;52.112;5.420;2023-02-08T03:07:11;15.47;;;7.70;;
75417;SDS011;63997;52.112;5.420;2023-02-08T03:21:38;10.17;;;5.47;;
75417;SDS011;63997;52.112;5.420;2023-02-08T03:26:57;14.75;;;7.38;;
75417;SDS011;63997;52.112;5.420;2023-02-08T03:32:08;14.18;;;6.60;;
75417;SDS011;63997;52.112;5.420;2023-02-08T03:34:59;15.47;;;7.10;;
75417;SDS011;63997;52.112;5.420;2023-02-08T03:37:36;11.70;;;6.22;;
75417;SDS011;63997;52.112;5.420;2023-02-08T03:40:13;13.25;;;6.85;;
75417;SDS011;63997;52.112;5.420;2023-02-08T03:43:01;11.48;;;6.53;;
75417;SDS011;63997;52.112;5.420;2023-02-08T03:45:37;12.10;;;6.55;;
75417;SDS011;63997;52.112;5.420;2023-02-08T03:48:08;14.37;;;6.67;;
75417;SDS011;63997;52.112;5.420;2023-02-08T03:50:37;15.70;;;7.25;;
75417;SDS011;63997;52.112;5.420;2023-02-08T03:53:06;15.63;;;7.32;;
75417;SDS011;63997;52.112;5.420;2023-02-08T03:55:34;14.85;;;7.30;;
75417;SDS011;63997;52.112;5.420;2023-02-08T03:58:24;12.25;;;7.20;;
75417;SDS011;63997;52.112;5.420;2023-02-08T04:00:53;15.40;;;7.87;;
75417;SDS011;63997;52.112;5.420;2023-02-08T04:03:27;16.20;;;8.00;;
75417;SDS011;63997;52.112;5.420;2023-02-08T04:05:55;15.27;;;8.32;;
75417;SDS011;63997;52.112;5.420;2023-02-08T04:08:22;13.48;;;7.05;;
75417;SDS011;63997;52.112;5.420;2023-02-08T04:11:07;13.07;;;7.85;;
75417;SDS011;63997;52.112;5.420;2023-02-08T04:16:37;15.38;;;7.35;;
75417;SDS011;63997;52.112;5.420;2023-02-08T04:19:04;18.25;;;6.90;;
75417;SDS011;63997;52.112;5.420;2023-02-08T04:21:30;14.75;;;7.43;;
75417;SDS011;63997;52.112;5.420;2023-02-08T04:24:15;13.73;;;7.18;;
75417;SDS011;63997;52.112;5.420;2023-02-08T04:26:41;14.17;;;7.40;;
75417;SDS011;63997;52.112;5.420;2023-02-08T04:29:08;11.52;;;7.20;;
75417;SDS011;63997;52.112;5.420;2023-02-08T04:31:34;12.65;;;7.40;;
75417;SDS011;63997;52.112;5.420;2023-02-08T04:34:00;14.55;;;7.85;;
75417;SDS011;63997;52.112;5.420;2023-02-08T04:36:27;14.30;;;7.22;;
75417;SDS011;63997;52.112;5.420;2023-02-08T04:38:54;14.00;;;7.37;;
75417;SDS011;63997;52.112;5.420;2023-02-08T04:41:20;17.05;;;8.40;;
75417;SDS011;63997;52.112;5.420;2023-02-08T04:43:47;18.00;;;7.65;;
75417;SDS011;63997;52.112;5.420;2023-02-08T04:46:13;11.63;;;6.82;;
75417;SDS011;63997;52.112;5.420;2023-02-08T04:48:40;13.75;;;8.10;;
75417;SDS011;63997;52.112;5.420;2023-02-08T04:51:06;15.63;;;7.37;;
75417;SDS011;63997;52.112;5.420;2023-02-08T04:53:32;14.70;;;7.45;;
75417;SDS011;63997;52.112;5.420;2023-02-08T04:55:59;17.77;;;7.10;;
75417;SDS011;63997;52.112;5.420;2023-02-08T05:01:11;15.45;;;7.18;;
75417;SDS011;63997;52.112;5.420;2023-02-08T05:03:38;11.60;;;6.87;;
75417;SDS011;63997;52.112;5.420;2023-02-08T05:06:04;12.82;;;7.72;;
75417;SDS011;63997;52.112;5.420;2023-02-08T05:08:31;11.93;;;7.30;;
75417;SDS011;63997;52.112;5.420;2023-02-08T05:10:57;11.50;;;7.40;;
75417;SDS011;63997;52.112;5.420;2023-02-08T05:13:24;12.15;;;7.28;;
75417;SDS011;63997;52.112;5.420;2023-02-08T05:15:50;12.57;;;7.07;;
75417;SDS011;63997;52.112;5.420;2023-02-08T05:18:17;20.30;;;8.57;;
75417;SDS011;63997;52.112;5.420;2023-02-08T05:20:44;14.63;;;6.78;;
75417;SDS011;63997;52.112;5.420;2023-02-08T05:23:10;15.63;;;7.32;;
75417;SDS011;63997;52.112;5.420;2023-02-08T05:25:37;13.80;;;7.15;;
75417;SDS011;63997;52.112;5.420;2023-02-08T05:28:04;12.83;;;7.23;;
75417;SDS011;63997;52.112;5.420;2023-02-08T05:30:31;13.05;;;6.47;;
75417;SDS011;63997;52.112;5.420;2023-02-08T05:35:44;9.57;;;5.95;;
75417;SDS011;63997;52.112;5.420;2023-02-08T05:38:10;14.98;;;7.75;;
75417;SDS011;63997;52.112;5.420;2023-02-08T05:40:36;16.10;;;7.87;;
75417;SDS011;63997;52.112;5.420;2023-02-08T05:43:03;17.00;;;7.55;;
75417;SDS011;63997;52.112;5.420;2023-02-08T05:46:07;16.92;;;7.72;;
75417;SDS011;63997;52.112;5.420;2023-02-08T05:48:33;11.05;;;6.18;;
75417;SDS011;63997;52.112;5.420;2023-02-08T05:51:00;16.00;;;8.52;;
75417;SDS011;63997;52.112;5.420;2023-02-08T05:53:26;14.20;;;7.17;;
75417;SDS011;63997;52.112;5.420;2023-02-08T05:55:53;11.82;;;7.13;;
75417;SDS011;63997;52.112;5.420;2023-02-08T05:58:37;12.15;;;7.28;;
75417;SDS011;63997;52.112;5.420;2023-02-08T06:01:10;15.25;;;8.88;;
75417;SDS011;63997;52.112;5.420;2023-02-08T06:06:23;15.07;;;7.73;;
75417;SDS011;63997;52.112;5.420;2023-02-08T06:08:50;12.23;;;6.97;;
75417;SDS011;63997;52.112;5.420;2023-02-08T06:11:16;18.55;;;7.68;;
75417;SDS011;63997;52.112;5.420;2023-02-08T06:13:44;13.82;;;7.63;;
75417;SDS011;63997;52.112;5.420;2023-02-08T06:16:12;13.00;;;7.38;;
75417;SDS011;63997;52.112;5.420;2023-02-08T06:18:57;21.37;;;9.03;;
75417;SDS011;63997;52.112;5.420;2023-02-08T06:21:24;16.13;;;7.72;;
75417;SDS011;63997;52.112;5.420;2023-02-08T06:23:50;16.42;;;7.93;;
75417;SDS011;63997;52.112;5.420;2023-02-08T06:26:36;14.88;;;8.15;;
75417;SDS011;63997;52.112;5.420;2023-02-08T06:29:21;16.55;;;7.70;;
75417;SDS011;63997;52.112;5.420;2023-02-08T06:31:48;18.70;;;9.20;;
75417;SDS011;63997;52.112;5.420;2023-02-08T06:34:14;17.25;;;7.95;;
75417;SDS011;63997;52.112;5.420;2023-02-08T06:36:40;17.30;;;9.25;;
75417;SDS011;63997;52.112;5.420;2023-02-08T06:39:07;15.70;;;7.65;;
75417;SDS011;63997;52.112;5.420;2023-02-08T06:41:33;16.45;;;7.85;;
75417;SDS011;63997;52.112;5.420;2023-02-08T06:44:00;13.70;;;7.40;;
75417;SDS011;63997;52.112;5.420;2023-02-08T06:46:27;13.05;;;6.90;;
75417;SDS011;63997;52.112;5.420;2023-02-08T06:48:53;16.42;;;8.25;;
75417;SDS011;63997;52.112;5.420;2023-02-08T06:51:21;15.82;;;8.15;;
75417;SDS011;63997;52.112;5.420;2023-02-08T06:53:48;16.95;;;7.50;;
75417;SDS011;63997;52.112;5.420;2023-02-08T06:59:00;12.88;;;7.07;;
75417;SDS011;63997;52.112;5.420;2023-02-08T07:01:26;11.25;;;7.03;;
75417;SDS011;63997;52.112;5.420;2023-02-08T07:03:52;13.90;;;6.50;;
75417;SDS011;63997;52.112;5.420;2023-02-08T07:06:19;14.80;;;7.75;;
75417;SDS011;63997;52.112;5.420;2023-02-08T07:08:46;12.23;;;6.93;;
75417;SDS011;63997;52.112;5.420;2023-02-08T07:11:14;17.55;;;7.78;;
75417;SDS011;63997;52.112;5.420;2023-02-08T07:13:45;15.73;;;8.55;;
75417;SDS011;63997;52.112;5.420;2023-02-08T07:16:15;14.00;;;7.40;;
75417;SDS011;63997;52.112;5.420;2023-02-08T07:18:42;15.48;;;7.70;;
75417;SDS011;63997;52.112;5.420;2023-02-08T07:21:09;15.03;;;7.50;;
75417;SDS011;63997;52.112;5.420;2023-02-08T07:23:37;12.63;;;7.32;;
75417;SDS011;63997;52.112;5.420;2023-02-08T07:26:05;15.60;;;7.85;;
75417;SDS011;63997;52.112;5.420;2023-02-08T07:28:34;12.75;;;7.40;;
75417;SDS011;63997;52.112;5.420;2023-02-08T07:31:04;12.65;;;7.43;;
75417;SDS011;63997;52.112;5.420;2023-02-08T07:33:35;10.37;;;6.30;;
75417;SDS011;63997;52.112;5.420;2023-02-08T07:36:02;19.80;;;8.52;;
75417;SDS011;63997;52.112;5.420;2023-02-08T07:38:31;14.38;;;7.72;;
75417;SDS011;63997;52.112;5.420;2023-02-08T07:40:59;19.52;;;7.95;;
75417;SDS011;63997;52.112;5.420;2023-02-08T07:43:27;18.17;;;8.40;;
75417;SDS011;63997;52.112;5.420;2023-02-08T07:46:13;18.37;;;8.43;;
75417;SDS011;63997;52.112;5.420;2023-02-08T07:48:42;18.50;;;7.13;;
75417;SDS011;63997;52.112;5.420;2023-02-08T07:51:27;18.90;;;9.13;;
75417;SDS011;63997;52.112;5.420;2023-02-08T07:54:12;23.98;;;7.72;;
75417;SDS011;63997;52.112;5.420;2023-02-08T07:56:38;12.95;;;7.28;;
75417;SDS011;63997;52.112;5.420;2023-02-08T07:59:04;14.53;;;8.30;;
75417;SDS011;63997;52.112;5.420;2023-02-08T08:01:31;13.15;;;7.80;;
75417;SDS011;63997;52.112;5.420;2023-02-08T08:03:57;14.73;;;7.85;;
75417;SDS011;63997;52.112;5.420;2023-02-08T08:06:24;14.07;;;7.85;;
75417;SDS011;63997;52.112;5.420;2023-02-08T08:08:51;11.43;;;7.68;;
75417;SDS011;63997;52.112;5.420;2023-02-08T08:14:21;18.25;;;8.48;;
75417;SDS011;63997;52.112;5.420;2023-02-08T08:20:10;15.38;;;8.88;;
75417;SDS011;63997;52.112;5.420;2023-02-08T08:22:36;20.75;;;10.57;;
75417;SDS011;63997;52.112;5.420;2023-02-08T08:25:03;17.30;;;9.77;;
75417;SDS011;63997;52.112;5.420;2023-02-08T08:27:30;22.73;;;10.77;;
75417;SDS011;63997;52.112;5.420;2023-02-08T08:30:15;21.02;;;10.43;;
75417;SDS011;63997;52.112;5.420;2023-02-08T08:32:42;22.08;;;10.50;;
75417;SDS011;63997;52.112;5.420;2023-02-08T08:35:09;23.42;;;10.85;;
75417;SDS011;63997;52.112;5.420;2023-02-08T08:37:35;24.17;;;10.67;;
75417;SDS011;63997;52.112;5.420;2023-02-08T08:40:03;21.85;;;11.07;;
75417;SDS011;63997;52.112;5.420;2023-02-08T08:42:32;26.33;;;11.23;;
75417;SDS011;63997;52.112;5.420;2023-02-08T08:44:59;21.23;;;10.02;;
75417;SDS011;63997;52.112;5.420;2023-02-08T08:47:44;18.02;;;9.77;;
75417;SDS011;63997;52.112;5.420;2023-02-08T08:50:10;18.83;;;10.10;;
75417;SDS011;63997;52.112;5.420;2023-02-08T08:52:37;25.50;;;9.82;;
75417;SDS011;63997;52.112;5.420;2023-02-08T08:55:05;19.48;;;10.40;;
75417;SDS011;63997;52.112;5.420;2023-02-08T08:57:32;14.40;;;9.07;;
75417;SDS011;63997;52.112;5.420;2023-02-08T08:59:59;22.92;;;12.88;;
75417;SDS011;63997;52.112;5.420;2023-02-08T09:02:25;20.87;;;10.23;;
75417;SDS011;63997;52.112;5.420;2023-02-08T09:04:51;20.00;;;10.45;;
75417;SDS011;63997;52.112;5.420;2023-02-08T09:07:18;27.58;;;12.68;;
75417;SDS011;63997;52.112;5.420;2023-02-08T09:09:44;20.02;;;9.48;;
75417;SDS011;63997;52.112;5.420;2023-02-08T09:12:13;19.40;;;9.52;;
75417;SDS011;63997;52.112;5.420;2023-02-08T09:14:41;16.87;;;9.33;;
75417;SDS011;63997;52.112;5.420;2023-02-08T09:17:10;23.95;;;10.98;;
75417;SDS011;63997;52.112;5.420;2023-02-08T09:19:37;19.98;;;12.05;;
75417;SDS011;63997;52.112;5.420;2023-02-08T09:22:06;19.42;;;11.02;;
75417;SDS011;63997;52.112;5.420;2023-02-08T09:24:33;17.17;;;8.80;;
75417;SDS011;63997;52.112;5.420;2023-02-08T09:29:44;15.18;;;9.27;;
75417;SDS011;63997;52.112;5.420;2023-02-08T09:32:10;13.70;;;8.90;;
75417;SDS011;63997;52.112;5.420;2023-02-08T09:34:37;15.57;;;8.38;;
75417;SDS011;63997;52.112;5.420;2023-02-08T09:37:03;14.80;;;8.82;;
75417;SDS011;63997;52.112;5.420;2023-02-08T09:39:32;13.47;;;8.53;;
75417;SDS011;63997;52.112;5.420;2023-02-08T09:48:03;12.98;;;8.20;;
75417;SDS011;63997;52.112;5.420;2023-02-08T09:50:52;13.07;;;8.00;;
75417;SDS011;63997;52.112;5.420;2023-02-08T09:53:43;13.77;;;8.27;;
75417;SDS011;63997;52.112;5.420;2023-02-08T09:56:33;11.02;;;7.38;;
75417;SDS011;63997;52.112;5.420;2023-02-08T09:59:02;11.68;;;7.93;;
75417;SDS011;63997;52.112;5.420;2023-02-08T10:07:01;12.57;;;8.27;;
75417;SDS011;63997;52.112;5.420;2023-02-08T10:09:27;12.93;;;7.43;;
75417;SDS011;63997;52.112;5.420;2023-02-08T10:17:35;13.45;;;7.68;;
75417;SDS011;63997;52.112;5.420;2023-02-08T10:29:20;13.90;;;6.90;;
75417;SDS011;63997;52.112;5.420;2023-02-08T10:35:07;16.40;;;7.83;;
75417;SDS011;63997;52.112;5.420;2023-02-08T10:37:37;12.40;;;7.72;;
75417;SDS011;63997;52.112;5.420;2023-02-08T10:43:01;16.75;;;7.45;;
75417;SDS011;63997;52.112;5.420;2023-02-08T10:46:21;12.32;;;6.72;;
75417;SDS011;63997;52.112;5.420;2023-02-08T10:48:43;11.23;;;6.50;;
75417;SDS011;63997;52.112;5.420;2023-02-08T10:51:30;11.23;;;7.07;;
75417;SDS011;63997;52.112;5.420;2023-02-08T10:53:57;11.63;;;6.90;;
75417;SDS011;63997;52.112;5.420;2023-02-08T10:56:31;11.85;;;6.78;;
75417;SDS011;63997;52.112;5.420;2023-02-08T10:59:19;11.77;;;6.03;;
75417;SDS011;63997;52.112;5.420;2023-02-08T11:01:49;20.23;;;6.97;;
75417;SDS011;63997;52.112;5.420;2023-02-08T11:04:16;10.00;;;6.35;;
75417;SDS011;63997;52.112;5.420;2023-02-08T11:06:44;10.88;;;6.65;;
75417;SDS011;63997;52.112;5.420;2023-02-08T11:09:29;13.30;;;6.20;;
75417;SDS011;63997;52.112;5.420;2023-02-08T11:11:56;11.85;;;6.82;;
75417;SDS011;63997;52.112;5.420;2023-02-08T11:14:26;12.73;;;5.60;;
75417;SDS011;63997;52.112;5.420;2023-02-08T11:17:45;9.00;;;5.45;;
75417;SDS011;63997;52.112;5.420;2023-02-08T11:23:19;10.50;;;5.78;;
75417;SDS011;63997;52.112;5.420;2023-02-08T11:25:48;8.80;;;4.93;;
75417;SDS011;63997;52.112;5.420;2023-02-08T11:28:22;11.30;;;5.20;;
75417;SDS011;63997;52.112;5.420;2023-02-08T11:30:59;9.73;;;5.70;;
75417;SDS011;63997;52.112;5.420;2023-02-08T11:33:28;8.50;;;5.63;;
75417;SDS011;63997;52.112;5.420;2023-02-08T11:35:59;7.25;;;4.90;;
75417;SDS011;63997;52.112;5.420;2023-02-08T11:41:14;8.30;;;4.63;;
75417;SDS011;63997;52.112;5.420;2023-02-08T11:43:51;8.02;;;5.47;;
75417;SDS011;63997;52.112;5.420;2023-02-08T11:46:38;9.38;;;5.15;;
75417;SDS011;63997;52.112;5.420;2023-02-08T11:49:12;9.85;;;4.82;;
75417;SDS011;63997;52.112;5.420;2023-02-08T11:51:46;9.05;;;5.28;;
75417;SDS011;63997;52.112;5.420;2023-02-08T11:57:16;6.38;;;4.25;;
75417;SDS011;63997;52.112;5.420;2023-02-08T11:59:49;8.18;;;5.10;;
75417;SDS011;63997;52.112;5.420;2023-02-08T12:02:27;10.30;;;4.75;;
75417;SDS011;63997;52.112;5.420;2023-02-08T12:18:46;8.13;;;4.65;;
75417;SDS011;63997;52.112;5.420;2023-02-08T12:21:27;8.60;;;3.93;;
75417;SDS011;63997;52.112;5.420;2023-02-08T12:24:02;6.13;;;3.97;;
75417;SDS011;63997;52.112;5.420;2023-02-08T12:32:32;8.52;;;4.32;;
75417;SDS011;63997;52.112;5.420;2023-02-08T12:41:27;6.63;;;4.47;;
75417;SDS011;63997;52.112;5.420;2023-02-08T12:52:59;6.78;;;4.90;;
75417;SDS011;63997;52.112;5.420;2023-02-08T12:57:48;10.70;;;4.15;;
75417;SDS011;63997;52.112;5.420;2023-02-08T13:00:23;6.75;;;3.85;;
75417;SDS011;63997;52.112;5.420;2023-02-08T13:03:00;6.90;;;4.17;;
75417;SDS011;63997;52.112;5.420;2023-02-08T13:05:34;7.05;;;4.43;;
75417;SDS011;63997;52.112;5.420;2023-02-08T13:08:12;7.13;;;5.15;;
75417;SDS011;63997;52.112;5.420;2023-02-08T13:10:43;6.22;;;4.10;;
75417;SDS011;63997;52.112;5.420;2023-02-08T13:13:25;6.70;;;5.20;;
75417;SDS011;63997;52.112;5.420;2023-02-08T13:16:17;5.60;;;4.37;;
75417;SDS011;63997;52.112;5.420;2023-02-08T13:18:54;9.32;;;4.55;;
75417;SDS011;63997;52.112;5.420;2023-02-08T13:21:33;7.03;;;3.95;;
75417;SDS011;63997;52.112;5.420;2023-02-08T13:27:21;8.15;;;4.47;;
75417;SDS011;63997;52.112;5.420;2023-02-08T13:29:49;5.60;;;4.17;;
75417;SDS011;63997;52.112;5.420;2023-02-08T13:32:24;9.15;;;4.18;;
75417;SDS011;63997;52.112;5.420;2023-02-08T13:37:39;7.22;;;4.03;;
75417;SDS011;63997;52.112;5.420;2023-02-08T13:42:52;7.10;;;4.67;;
75417;SDS011;63997;52.112;5.420;2023-02-08T13:56:04;10.57;;;5.33;;
75417;SDS011;63997;52.112;5.420;2023-02-08T14:01:28;10.98;;;5.78;;
75417;SDS011;63997;52.112;5.420;2023-02-08T14:09:19;9.80;;;5.80;;
75417;SDS011;63997;52.112;5.420;2023-02-08T14:12:01;10.50;;;6.13;;
75417;SDS011;63997;52.112;5.420;2023-02-08T14:14:36;12.05;;;6.18;;
75417;SDS011;63997;52.112;5.420;2023-02-08T14:19:33;11.88;;;5.90;;
75417;SDS011;63997;52.112;5.420;2023-02-08T14:22:03;7.20;;;4.40;;
75417;SDS011;63997;52.112;5.420;2023-02-08T14:24:33;7.03;;;4.00;;
75417;SDS011;63997;52.112;5.420;2023-02-08T14:29:56;8.13;;;4.63;;
75417;SDS011;63997;52.112;5.420;2023-02-08T14:32:26;5.50;;;4.35;;
75417;SDS011;63997;52.112;5.420;2023-02-08T14:34:59;6.17;;;3.70;;
75417;SDS011;63997;52.112;5.420;2023-02-08T14:37:30;6.43;;;3.95;;
75417;SDS011;63997;52.112;5.420;2023-02-08T14:42:56;4.20;;;3.05;;
75417;SDS011;63997;52.112;5.420;2023-02-08T14:45:26;4.93;;;3.35;;
75417;SDS011;63997;52.112;5.420;2023-02-08T14:50:50;3.40;;;2.92;;
75417;SDS011;63997;52.112;5.420;2023-02-08T14:58:36;5.82;;;3.08;;
75417;SDS011;63997;52.112;5.420;2023-02-08T15:01:06;3.80;;;3.00;;
75417;SDS011;63997;52.112;5.420;2023-02-08T15:03:40;4.13;;;2.92;;
75417;SDS011;63997;52.112;5.420;2023-02-08T15:06:21;5.57;;;3.25;;
75417;SDS011;63997;52.112;5.420;2023-02-08T15:08:52;3.15;;;2.17;;
75417;SDS011;63997;52.112;5.420;2023-02-08T15:11:38;5.35;;;2.40;;
75417;SDS011;63997;52.112;5.420;2023-02-08T15:14:05;3.03;;;1.90;;
75417;SDS011;63997;52.112;5.420;2023-02-08T15:16:35;4.47;;;2.17;;
75417;SDS011;63997;52.112;5.420;2023-02-08T15:19:22;2.75;;;1.83;;
75417;SDS011;63997;52.112;5.420;2023-02-08T15:21:53;6.57;;;2.05;;
75417;SDS011;63997;52.112;5.420;2023-02-08T15:24:21;2.50;;;1.95;;
75417;SDS011;63997;52.112;5.420;2023-02-08T15:26:49;4.83;;;2.07;;
75417;SDS011;63997;52.112;5.420;2023-02-08T15:32:13;3.28;;;2.25;;
75417;SDS011;63997;52.112;5.420;2023-02-08T15:34:43;8.80;;;2.58;;
75417;SDS011;63997;52.112;5.420;2023-02-08T15:39:58;7.03;;;2.67;;
75417;SDS011;63997;52.112;5.420;2023-02-08T15:42:26;7.13;;;2.47;;
75417;SDS011;63997;52.112;5.420;2023-02-08T15:44:57;5.60;;;2.45;;
75417;SDS011;63997;52.112;5.420;2023-02-08T15:47:33;4.63;;;2.72;;
75417;SDS011;63997;52.112;5.420;2023-02-08T15:50:01;3.60;;;2.60;;
75417;SDS011;63997;52.112;5.420;2023-02-08T15:52:39;5.70;;;2.83;;
75417;SDS011;63997;52.112;5.420;2023-02-08T15:55:06;9.93;;;2.50;;
75417;SDS011;63997;52.112;5.420;2023-02-08T16:00:13;4.57;;;2.72;;
75417;SDS011;63997;52.112;5.420;2023-02-08T16:02:42;4.78;;;2.65;;
75417;SDS011;63997;52.112;5.420;2023-02-08T16:05:11;4.17;;;2.20;;
75417;SDS011;63997;52.112;5.420;2023-02-08T16:07:45;5.32;;;2.72;;
75417;SDS011;63997;52.112;5.420;2023-02-08T16:10:28;6.35;;;2.72;;
75417;SDS011;63997;52.112;5.420;2023-02-08T16:13:02;4.10;;;2.28;;
75417;SDS011;63997;52.112;5.420;2023-02-08T16:15:35;4.10;;;2.38;;
75417;SDS011;63997;52.112;5.420;2023-02-08T16:18:03;3.87;;;2.50;;
75417;SDS011;63997;52.112;5.420;2023-02-08T16:20:34;4.68;;;2.30;;
75417;SDS011;63997;52.112;5.420;2023-02-08T16:23:21;5.60;;;2.70;;
75417;SDS011;63997;52.112;5.420;2023-02-08T16:25:50;5.28;;;2.42;;
75417;SDS011;63997;52.112;5.420;2023-02-08T16:28:24;4.75;;;2.58;;
75417;SDS011;63997;52.112;5.420;2023-02-08T16:30:54;4.13;;;2.23;;
75417;SDS011;63997;52.112;5.420;2023-02-08T16:33:23;3.38;;;2.13;;
75417;SDS011;63997;52.112;5.420;2023-02-08T16:35:50;7.45;;;2.63;;
75417;SDS011;63997;52.112;5.420;2023-02-08T16:38:18;5.00;;;2.55;;
75417;SDS011;63997;52.112;5.420;2023-02-08T16:40:48;4.75;;;2.40;;
75417;SDS011;63997;52.112;5.420;2023-02-08T16:51:14;5.85;;;2.63;;
75417;SDS011;63997;52.112;5.420;2023-02-08T16:54:04;7.10;;;3.45;;
75417;SDS011;63997;52.112;5.420;2023-02-08T16:56:37;6.07;;;3.27;;
75417;SDS011;63997;52.112;5.420;2023-02-08T16:59:04;5.15;;;2.78;;
75417;SDS011;63997;52.112;5.420;2023-02-08T17:01:31;5.30;;;3.20;;
75417;SDS011;63997;52.112;5.420;2023-02-08T17:03:58;4.43;;;2.55;;
75417;SDS011;63997;52.112;5.420;2023-02-08T17:06:28;5.80;;;2.70;;
75417;SDS011;63997;52.112;5.420;2023-02-08T17:08:57;6.40;;;2.67;;
75417;SDS011;63997;52.112;5.420;2023-02-08T17:11:26;5.93;;;2.55;;
75417;SDS011;63997;52.112;5.420;2023-02-08T17:14:11;4.18;;;2.85;;
75417;SDS011;63997;52.112;5.420;2023-02-08T17:16:38;4.95;;;3.03;;
75417;SDS011;63997;52.112;5.420;2023-02-08T17:19:09;6.22;;;3.05;;
75417;SDS011;63997;52.112;5.420;2023-02-08T17:21:41;5.60;;;2.93;;
75417;SDS011;63997;52.112;5.420;2023-02-08T17:24:07;5.00;;;2.50;;
75417;SDS011;63997;52.112;5.420;2023-02-08T17:26:36;6.43;;;2.90;;
75417;SDS011;63997;52.112;5.420;2023-02-08T17:29:06;4.28;;;2.60;;
75417;SDS011;63997;52.112;5.420;2023-02-08T17:31:33;4.57;;;2.58;;
75417;SDS011;63997;52.112;5.420;2023-02-08T17:34:00;5.40;;;2.90;;
75417;SDS011;63997;52.112;5.420;2023-02-08T17:36:30;5.38;;;2.67;;
75417;SDS011;63997;52.112;5.420;2023-02-08T17:38:58;6.05;;;2.80;;
75417;SDS011;63997;52.112;5.420;2023-02-08T17:41:25;5.22;;;2.33;;
75417;SDS011;63997;52.112;5.420;2023-02-08T17:43:52;4.18;;;2.63;;
75417;SDS011;63997;52.112;5.420;2023-02-08T17:46:21;9.37;;;2.47;;
75417;SDS011;63997;52.112;5.420;2023-02-08T17:48:50;5.22;;;2.55;;
75417;SDS011;63997;52.112;5.420;2023-02-08T17:51:18;4.88;;;2.60;;
75417;SDS011;63997;52.112;5.420;2023-02-08T17:53:46;4.80;;;2.75;;
75417;SDS011;63997;52.112;5.420;2023-02-08T17:56:15;4.28;;;2.58;;
75417;SDS011;63997;52.112;5.420;2023-02-08T17:59:01;10.87;;;3.00;;
75417;SDS011;63997;52.112;5.420;2023-02-08T18:01:30;5.85;;;2.15;;
75417;SDS011;63997;52.112;5.420;2023-02-08T18:04:16;6.18;;;2.53;;
75417;SDS011;63997;52.112;5.420;2023-02-08T18:07:00;3.60;;;2.50;;
75417;SDS011;63997;52.112;5.420;2023-02-08T18:09:27;4.55;;;3.08;;
75417;SDS011;63997;52.112;5.420;2023-02-08T18:11:53;12.03;;;3.47;;
75417;SDS011;63997;52.112;5.420;2023-02-08T18:14:20;10.50;;;3.53;;
75417;SDS011;63997;52.112;5.420;2023-02-08T18:16:46;11.32;;;3.38;;
75417;SDS011;63997;52.112;5.420;2023-02-08T18:19:31;4.97;;;2.78;;
75417;SDS011;63997;52.112;5.420;2023-02-08T18:21:58;9.60;;;4.22;;
75417;SDS011;63997;52.112;5.420;2023-02-08T18:24:29;10.40;;;4.13;;
75417;SDS011;63997;52.112;5.420;2023-02-08T18:26:56;4.50;;;2.90;;
75417;SDS011;63997;52.112;5.420;2023-02-08T18:29:25;7.70;;;3.25;;
75417;SDS011;63997;52.112;5.420;2023-02-08T18:31:51;4.07;;;2.78;;
75417;SDS011;63997;52.112;5.420;2023-02-08T18:34:18;5.30;;;2.67;;
75417;SDS011;63997;52.112;5.420;2023-02-08T18:36:45;7.43;;;3.70;;
75417;SDS011;63997;52.112;5.420;2023-02-08T18:41:57;5.38;;;2.95;;
75417;SDS011;63997;52.112;5.420;2023-02-08T18:44:24;6.43;;;3.25;;
75417;SDS011;63997;52.112;5.420;2023-02-08T18:46:50;5.72;;;3.53;;
75417;SDS011;63997;52.112;5.420;2023-02-08T18:49:35;3.43;;;2.30;;
75417;SDS011;63997;52.112;5.420;2023-02-08T18:52:10;6.70;;;3.03;;
75417;SDS011;63997;52.112;5.420;2023-02-08T18:54:38;5.63;;;3.50;;
75417;SDS011;63997;52.112;5.420;2023-02-08T18:57:05;6.30;;;3.10;;